sensor_id;sensor_type;location;lat;lon;timestamp;pressure;altitude;pressure_sealevel;temperature;humidity
28456;BME280;15682;56.742;38.866;2023-03-15T00:00:56;98820.0;;;3.4;73.4
28456;BME280;15682;56.742;38.866;2023-03-15T00:02:56;98820.0;;;3.4;73.4
28456;BME280;15682;56.742;38.866;2023-03-15T00:04:55;98820.0;;;3.4;73.4
28456;BME280;15682;56.742;38.866;2023-03-15T00:06:56;98820.0;;;3.3;74.0
28456;BME280;15682;56.742;38.866;2023-03-15T00:08:55;98810.0;;;3.3;73.4
28456;BME280;15682;56.742;38.866;2023-03-15T00:10:55;98810.0;;;3.3;73.4
28456;BME280;15682;56.742;38.866;2023-03-15T00:12:55;98810.0;;;3.3;73.4
28456;BME280;15682;56.742;38.866;2023-03-15T00:14:55;98810.0;;;3.3;74.0
28456;BME280;15682;56.742;38.866;2023-03-15T00:16:55;98810.0;;;3.3;74.0
28456;BME280;15682;56.742;38.866;2023-03-15T00:18:55;98810.0;;;3.3;73.5
28456;BME280;15682;56.742;38.866;2023-03-15T00:20:56;98810.0;;;3.2;74.4
28456;BME280;15682;56.742;38.866;2023-03-15T00:22:55;98810.0;;;3.2;73.8
28456;BME280;15682;56.742;38.866;2023-03-15T00:24:55;98810.0;;;3.2;74.5
28456;BME280;15682;56.742;38.866;2023-03-15T00:26:55;98810.0;;;3.2;73.8
28456;BME280;15682;56.742;38.866;2023-03-15T00:28:55;98810.0;;;3.2;73.3
28456;BME280;15682;56.742;38.866;2023-03-15T00:31:04;98810.0;;;3.2;73.3
28456;BME280;15682;56.742;38.866;2023-03-15T00:32:55;98810.0;;;3.2;74.2
28456;BME280;15682;56.742;38.866;2023-03-15T00:34:55;98810.0;;;3.2;74.2
28456;BME280;15682;56.742;38.866;2023-03-15T00:36:55;98810.0;;;3.2;74.2
28456;BME280;15682;56.742;38.866;2023-03-15T00:38:55;98810.0;;;3.2;74.2
28456;BME280;15682;56.742;38.866;2023-03-15T00:40:55;98810.0;;;3.2;74.2
28456;BME280;15682;56.742;38.866;2023-03-15T00:42:55;98810.0;;;3.2;73.9
28456;BME280;15682;56.742;38.866;2023-03-15T00:44:55;98810.0;;;3.2;73.9
28456;BME280;15682;56.742;38.866;2023-03-15T00:46:55;98810.0;;;3.0;73.9
28456;BME280;15682;56.742;38.866;2023-03-15T00:48:55;98810.0;;;3.0;73.9
28456;BME280;15682;56.742;38.866;2023-03-15T00:51:04;98810.0;;;3.1;73.9
28456;BME280;15682;56.742;38.866;2023-03-15T00:52:55;98810.0;;;3.2;74.0
28456;BME280;15682;56.742;38.866;2023-03-15T00:54:55;98810.0;;;3.2;74.0
28456;BME280;15682;56.742;38.866;2023-03-15T00:56:55;98810.0;;;3.2;74.0
28456;BME280;15682;56.742;38.866;2023-03-15T00:58:56;98810.0;;;3.2;73.4
28456;BME280;15682;56.742;38.866;2023-03-15T01:00:55;98820.0;;;3.2;73.9
28456;BME280;15682;56.742;38.866;2023-03-15T01:02:55;98820.0;;;3.2;74.0
28456;BME280;15682;56.742;38.866;2023-03-15T01:04:55;98820.0;;;3.2;74.0
28456;BME280;15682;56.742;38.866;2023-03-15T01:06:55;98820.0;;;3.2;74.0
28456;BME280;15682;56.742;38.866;2023-03-15T01:08:55;98820.0;;;3.2;74.0
28456;BME280;15682;56.742;38.866;2023-03-15T01:10:55;98820.0;;;3.1;74.7
28456;BME280;15682;56.742;38.866;2023-03-15T01:12:55;98820.0;;;3.1;75.1
28456;BME280;15682;56.742;38.866;2023-03-15T01:14:55;98820.0;;;3.1;73.9
28456;BME280;15682;56.742;38.866;2023-03-15T01:16:55;98820.0;;;3.1;75.0
28456;BME280;15682;56.742;38.866;2023-03-15T01:18:55;98820.0;;;3.1;74.2
28456;BME280;15682;56.742;38.866;2023-03-15T01:20:55;98820.0;;;3.2;74.2
28456;BME280;15682;56.742;38.866;2023-03-15T01:22:55;98820.0;;;3.2;74.3
28456;BME280;15682;56.742;38.866;2023-03-15T01:24:55;98820.0;;;3.2;74.3
28456;BME280;15682;56.742;38.866;2023-03-15T01:26:55;98820.0;;;3.2;74.7
28456;BME280;15682;56.742;38.866;2023-03-15T01:28:55;98820.0;;;3.2;74.7
28456;BME280;15682;56.742;38.866;2023-03-15T01:30:55;98820.0;;;3.1;74.7
28456;BME280;15682;56.742;38.866;2023-03-15T01:32:55;98820.0;;;3.1;74.4
28456;BME280;15682;56.742;38.866;2023-03-15T01:34:55;98820.0;;;3.1;74.4
28456;BME280;15682;56.742;38.866;2023-03-15T01:36:55;98820.0;;;3.1;74.1
28456;BME280;15682;56.742;38.866;2023-03-15T01:38:55;98820.0;;;3.1;74.9
28456;BME280;15682;56.742;38.866;2023-03-15T01:40:55;98820.0;;;3.2;74.9
28456;BME280;15682;56.742;38.866;2023-03-15T01:43:13;98820.0;;;3.2;74.4
28456;BME280;15682;56.742;38.866;2023-03-15T01:44:56;98820.0;;;3.2;74.4
28456;BME280;15682;56.742;38.866;2023-03-15T01:46:55;98820.0;;;3.2;75.0
28456;BME280;15682;56.742;38.866;2023-03-15T01:48:59;98820.0;;;3.2;75.0
28456;BME280;15682;56.742;38.866;2023-03-15T01:50:55;98820.0;;;3.1;75.1
28456;BME280;15682;56.742;38.866;2023-03-15T01:52:54;98820.0;;;3.1;75.3
28456;BME280;15682;56.742;38.866;2023-03-15T01:54:58;98820.0;;;3.1;75.3
28456;BME280;15682;56.742;38.866;2023-03-15T01:56:59;98820.0;;;3.1;75.3
28456;BME280;15682;56.742;38.866;2023-03-15T01:58:56;98820.0;;;3.1;75.3
28456;BME280;15682;56.742;38.866;2023-03-15T02:00:54;98820.0;;;3.2;75.3
28456;BME280;15682;56.742;38.866;2023-03-15T02:02:57;98820.0;;;3.2;75.5
28456;BME280;15682;56.742;38.866;2023-03-15T02:04:58;98810.0;;;3.2;75.6
28456;BME280;15682;56.742;38.866;2023-03-15T02:06:59;98810.0;;;3.3;75.0
28456;BME280;15682;56.742;38.866;2023-03-15T02:08:57;98810.0;;;3.3;75.0
28456;BME280;15682;56.742;38.866;2023-03-15T02:10:56;98810.0;;;3.3;75.0
28456;BME280;15682;56.742;38.866;2023-03-15T02:12:54;98810.0;;;3.3;75.2
28456;BME280;15682;56.742;38.866;2023-03-15T02:14:54;98810.0;;;3.3;75.2
28456;BME280;15682;56.742;38.866;2023-03-15T02:16:54;98810.0;;;3.3;75.2
28456;BME280;15682;56.742;38.866;2023-03-15T02:18:54;98810.0;;;3.3;76.4
28456;BME280;15682;56.742;38.866;2023-03-15T02:21:00;98810.0;;;3.2;75.5
28456;BME280;15682;56.742;38.866;2023-03-15T02:22:56;98810.0;;;3.2;75.6
28456;BME280;15682;56.742;38.866;2023-03-15T02:24:58;98810.0;;;3.2;76.1
28456;BME280;15682;56.742;38.866;2023-03-15T02:26:55;98810.0;;;3.2;75.5
28456;BME280;15682;56.742;38.866;2023-03-15T02:28:54;98810.0;;;3.2;76.4
28456;BME280;15682;56.742;38.866;2023-03-15T02:30:54;98810.0;;;3.1;75.9
28456;BME280;15682;56.742;38.866;2023-03-15T02:32:54;98810.0;;;3.1;76.4
28456;BME280;15682;56.742;38.866;2023-03-15T02:34:54;98810.0;;;3.1;76.4
28456;BME280;15682;56.742;38.866;2023-03-15T02:36:54;98810.0;;;3.1;76.4
28456;BME280;15682;56.742;38.866;2023-03-15T02:38:55;98810.0;;;3.1;76.4
28456;BME280;15682;56.742;38.866;2023-03-15T02:40:54;98820.0;;;3.1;76.4
28456;BME280;15682;56.742;38.866;2023-03-15T02:42:56;98820.0;;;3.1;76.4
28456;BME280;15682;56.742;38.866;2023-03-15T02:44:55;98820.0;;;3.1;76.6
28456;BME280;15682;56.742;38.866;2023-03-15T02:46:56;98820.0;;;3.1;76.6
28456;BME280;15682;56.742;38.866;2023-03-15T02:48:54;98820.0;;;3.1;76.6
28456;BME280;15682;56.742;38.866;2023-03-15T02:50:54;98820.0;;;3.2;77.7
28456;BME280;15682;56.742;38.866;2023-03-15T02:52:54;98830.0;;;3.2;77.1
28456;BME280;15682;56.742;38.866;2023-03-15T02:54:54;98830.0;;;3.2;77.1
28456;BME280;15682;56.742;38.866;2023-03-15T02:56:54;98830.0;;;3.2;77.1
28456;BME280;15682;56.742;38.866;2023-03-15T02:58:54;98840.0;;;3.3;76.6
28456;BME280;15682;56.742;38.866;2023-03-15T03:00:54;98840.0;;;3.2;77.5
28456;BME280;15682;56.742;38.866;2023-03-15T03:02:54;98820.0;;;3.2;76.8
28456;BME280;15682;56.742;38.866;2023-03-15T03:04:54;98820.0;;;3.2;76.8
28456;BME280;15682;56.742;38.866;2023-03-15T03:06:54;98830.0;;;3.2;76.8
28456;BME280;15682;56.742;38.866;2023-03-15T03:08:54;98830.0;;;3.2;77.3
28456;BME280;15682;56.742;38.866;2023-03-15T03:10:54;98830.0;;;3.2;77.3
28456;BME280;15682;56.742;38.866;2023-03-15T03:12:54;98830.0;;;3.2;76.8
28456;BME280;15682;56.742;38.866;2023-03-15T03:14:53;98820.0;;;3.2;76.8
28456;BME280;15682;56.742;38.866;2023-03-15T03:16:53;98830.0;;;3.2;77.4
28456;BME280;15682;56.742;38.866;2023-03-15T03:18:53;98830.0;;;3.2;76.8
28456;BME280;15682;56.742;38.866;2023-03-15T03:20:55;98840.0;;;3.3;78.2
28456;BME280;15682;56.742;38.866;2023-03-15T03:22:53;98840.0;;;3.3;77.0
28456;BME280;15682;56.742;38.866;2023-03-15T03:24:53;98840.0;;;3.2;77.0
28456;BME280;15682;56.742;38.866;2023-03-15T03:26:53;98840.0;;;3.2;77.0
28456;BME280;15682;56.742;38.866;2023-03-15T03:28:53;98840.0;;;3.2;77.9
28456;BME280;15682;56.742;38.866;2023-03-15T03:30:55;98840.0;;;3.1;77.9
28456;BME280;15682;56.742;38.866;2023-03-15T03:32:53;98840.0;;;3.1;77.5
28456;BME280;15682;56.742;38.866;2023-03-15T03:34:53;98840.0;;;3.1;77.5
28456;BME280;15682;56.742;38.866;2023-03-15T03:36:53;98840.0;;;3.1;77.5
28456;BME280;15682;56.742;38.866;2023-03-15T03:38:53;98840.0;;;3.1;77.5
28456;BME280;15682;56.742;38.866;2023-03-15T03:40:53;98840.0;;;3.1;77.5
28456;BME280;15682;56.742;38.866;2023-03-15T03:42:53;98840.0;;;3.1;77.6
28456;BME280;15682;56.742;38.866;2023-03-15T03:44:53;98840.0;;;3.1;77.6
28456;BME280;15682;56.742;38.866;2023-03-15T03:46:53;98840.0;;;3.1;77.6
28456;BME280;15682;56.742;38.866;2023-03-15T03:48:53;98840.0;;;3.1;78.6
28456;BME280;15682;56.742;38.866;2023-03-15T03:50:53;98840.0;;;3.1;78.6
28456;BME280;15682;56.742;38.866;2023-03-15T03:52:53;98850.0;;;3.1;78.3
28456;BME280;15682;56.742;38.866;2023-03-15T03:54:53;98850.0;;;3.1;78.3
28456;BME280;15682;56.742;38.866;2023-03-15T03:56:53;98850.0;;;3.3;78.0
28456;BME280;15682;56.742;38.866;2023-03-15T03:58:53;98850.0;;;3.3;78.0
28456;BME280;15682;56.742;38.866;2023-03-15T04:00:53;98860.0;;;3.2;78.0
28456;BME280;15682;56.742;38.866;2023-03-15T04:02:53;98860.0;;;3.2;78.1
28456;BME280;15682;56.742;38.866;2023-03-15T04:04:53;98860.0;;;3.2;78.1
28456;BME280;15682;56.742;38.866;2023-03-15T04:06:53;98860.0;;;3.4;78.1
28456;BME280;15682;56.742;38.866;2023-03-15T04:08:53;98860.0;;;3.4;77.5
28456;BME280;15682;56.742;38.866;2023-03-15T04:10:54;98860.0;;;3.5;77.5
28456;BME280;15682;56.742;38.866;2023-03-15T04:12:53;98860.0;;;3.5;77.2
28456;BME280;15682;56.742;38.866;2023-03-15T04:14:53;98860.0;;;3.5;77.2
28456;BME280;15682;56.742;38.866;2023-03-15T04:16:53;98860.0;;;3.5;77.2
28456;BME280;15682;56.742;38.866;2023-03-15T04:18:53;98860.0;;;3.5;77.2
28456;BME280;15682;56.742;38.866;2023-03-15T04:20:53;98860.0;;;3.5;77.3
28456;BME280;15682;56.742;38.866;2023-03-15T04:22:53;98850.0;;;3.5;77.4
28456;BME280;15682;56.742;38.866;2023-03-15T04:24:53;98850.0;;;3.5;77.4
28456;BME280;15682;56.742;38.866;2023-03-15T04:26:53;98850.0;;;3.5;77.4
28456;BME280;15682;56.742;38.866;2023-03-15T04:28:53;98850.0;;;3.6;77.4
28456;BME280;15682;56.742;38.866;2023-03-15T04:30:53;98840.0;;;3.7;77.4
28456;BME280;15682;56.742;38.866;2023-03-15T04:32:53;98850.0;;;3.7;77.0
28456;BME280;15682;56.742;38.866;2023-03-15T04:34:53;98840.0;;;3.7;77.0
28456;BME280;15682;56.742;38.866;2023-03-15T04:36:53;98840.0;;;3.7;77.0
28456;BME280;15682;56.742;38.866;2023-03-15T04:38:53;98840.0;;;3.7;77.0
28456;BME280;15682;56.742;38.866;2023-03-15T04:40:53;98850.0;;;3.7;77.0
28456;BME280;15682;56.742;38.866;2023-03-15T04:42:53;98850.0;;;3.7;77.3
28456;BME280;15682;56.742;38.866;2023-03-15T04:44:53;98850.0;;;3.8;76.7
28456;BME280;15682;56.742;38.866;2023-03-15T04:46:53;98850.0;;;3.8;76.7
28456;BME280;15682;56.742;38.866;2023-03-15T04:48:53;98860.0;;;3.8;76.7
28456;BME280;15682;56.742;38.866;2023-03-15T04:50:53;98860.0;;;4.0;76.2
28456;BME280;15682;56.742;38.866;2023-03-15T04:52:53;98860.0;;;4.0;76.2
28456;BME280;15682;56.742;38.866;2023-03-15T04:54:52;98880.0;;;4.1;76.2
28456;BME280;15682;56.742;38.866;2023-03-15T04:56:52;98880.0;;;4.1;76.2
28456;BME280;15682;56.742;38.866;2023-03-15T04:58:53;98880.0;;;4.1;76.2
28456;BME280;15682;56.742;38.866;2023-03-15T05:00:53;98880.0;;;4.1;76.2
28456;BME280;15682;56.742;38.866;2023-03-15T05:02:52;98880.0;;;4.2;75.5
28456;BME280;15682;56.742;38.866;2023-03-15T05:04:52;98880.0;;;4.2;76.1
28456;BME280;15682;56.742;38.866;2023-03-15T05:06:52;98880.0;;;4.2;75.1
28456;BME280;15682;56.742;38.866;2023-03-15T05:08:53;98880.0;;;4.2;75.7
28456;BME280;15682;56.742;38.866;2023-03-15T05:10:53;98880.0;;;4.2;75.7
28456;BME280;15682;56.742;38.866;2023-03-15T05:12:53;98890.0;;;4.3;74.9
28456;BME280;15682;56.742;38.866;2023-03-15T05:14:52;98890.0;;;4.3;74.9
28456;BME280;15682;56.742;38.866;2023-03-15T05:16:52;98890.0;;;4.3;74.9
28456;BME280;15682;56.742;38.866;2023-03-15T05:18:52;98890.0;;;4.3;74.9
28456;BME280;15682;56.742;38.866;2023-03-15T05:20:52;98890.0;;;4.6;74.4
28456;BME280;15682;56.742;38.866;2023-03-15T05:22:52;98900.0;;;4.6;74.3
28456;BME280;15682;56.742;38.866;2023-03-15T05:24:52;98900.0;;;4.6;73.4
28456;BME280;15682;56.742;38.866;2023-03-15T05:26:52;98900.0;;;4.6;73.4
28456;BME280;15682;56.742;38.866;2023-03-15T05:28:52;98900.0;;;4.6;74.0
28456;BME280;15682;56.742;38.866;2023-03-15T05:30:52;98910.0;;;4.7;73.4
28456;BME280;15682;56.742;38.866;2023-03-15T05:32:52;98920.0;;;5.0;73.6
28456;BME280;15682;56.742;38.866;2023-03-15T05:34:52;98920.0;;;5.0;73.6
28456;BME280;15682;56.742;38.866;2023-03-15T05:36:52;98920.0;;;5.0;73.6
28456;BME280;15682;56.742;38.866;2023-03-15T05:38:52;98920.0;;;5.1;72.6
28456;BME280;15682;56.742;38.866;2023-03-15T05:40:53;98920.0;;;5.0;72.6
28456;BME280;15682;56.742;38.866;2023-03-15T05:42:52;98920.0;;;5.0;72.4
28456;BME280;15682;56.742;38.866;2023-03-15T05:44:53;98910.0;;;5.0;72.4
28456;BME280;15682;56.742;38.866;2023-03-15T05:46:53;98920.0;;;5.0;72.4
28456;BME280;15682;56.742;38.866;2023-03-15T05:48:53;98920.0;;;5.1;72.1
28456;BME280;15682;56.742;38.866;2023-03-15T05:50:53;98920.0;;;5.1;72.1
28456;BME280;15682;56.742;38.866;2023-03-15T05:52:53;98920.0;;;5.2;72.2
28456;BME280;15682;56.742;38.866;2023-03-15T05:54:53;98920.0;;;5.2;71.5
28456;BME280;15682;56.742;38.866;2023-03-15T05:56:53;98920.0;;;5.4;71.4
28456;BME280;15682;56.742;38.866;2023-03-15T05:58:53;98920.0;;;5.4;71.4
28456;BME280;15682;56.742;38.866;2023-03-15T06:00:53;98920.0;;;5.4;71.4
28456;BME280;15682;56.742;38.866;2023-03-15T06:02:53;98920.0;;;5.4;71.0
28456;BME280;15682;56.742;38.866;2023-03-15T06:04:53;98920.0;;;5.4;71.5
28456;BME280;15682;56.742;38.866;2023-03-15T06:06:53;98920.0;;;5.3;71.0
28456;BME280;15682;56.742;38.866;2023-03-15T06:08:53;98920.0;;;5.3;71.0
28456;BME280;15682;56.742;38.866;2023-03-15T06:10:53;98920.0;;;5.6;70.4
28456;BME280;15682;56.742;38.866;2023-03-15T06:12:53;98930.0;;;5.7;70.4
28456;BME280;15682;56.742;38.866;2023-03-15T06:14:53;98930.0;;;5.7;70.4
28456;BME280;15682;56.742;38.866;2023-03-15T06:16:53;98930.0;;;5.7;70.4
28456;BME280;15682;56.742;38.866;2023-03-15T06:18:53;98940.0;;;5.7;70.4
28456;BME280;15682;56.742;38.866;2023-03-15T06:20:53;98940.0;;;5.5;70.4
28456;BME280;15682;56.742;38.866;2023-03-15T06:22:53;98940.0;;;5.5;70.3
28456;BME280;15682;56.742;38.866;2023-03-15T06:24:54;98940.0;;;5.6;69.7
28456;BME280;15682;56.742;38.866;2023-03-15T06:26:53;98940.0;;;5.7;70.7
28456;BME280;15682;56.742;38.866;2023-03-15T06:28:53;98940.0;;;5.7;70.0
28456;BME280;15682;56.742;38.866;2023-03-15T06:30:53;98940.0;;;5.9;70.0
28456;BME280;15682;56.742;38.866;2023-03-15T06:32:54;98950.0;;;6.1;69.7
28456;BME280;15682;56.742;38.866;2023-03-15T06:34:54;98960.0;;;6.1;68.8
28456;BME280;15682;56.742;38.866;2023-03-15T06:36:54;98960.0;;;6.3;68.8
28456;BME280;15682;56.742;38.866;2023-03-15T06:38:54;98960.0;;;6.5;67.1
28456;BME280;15682;56.742;38.866;2023-03-15T06:40:54;98960.0;;;6.6;66.4
28456;BME280;15682;56.742;38.866;2023-03-15T06:42:54;98960.0;;;6.7;66.1
28456;BME280;15682;56.742;38.866;2023-03-15T06:44:54;98960.0;;;6.8;66.1
28456;BME280;15682;56.742;38.866;2023-03-15T06:46:54;98960.0;;;7.2;64.9
28456;BME280;15682;56.742;38.866;2023-03-15T06:48:54;98960.0;;;7.1;64.4
28456;BME280;15682;56.742;38.866;2023-03-15T06:50:54;98970.0;;;7.1;65.6
28456;BME280;15682;56.742;38.866;2023-03-15T06:52:54;98970.0;;;7.2;63.3
28456;BME280;15682;56.742;38.866;2023-03-15T06:54:54;98970.0;;;7.3;64.3
28456;BME280;15682;56.742;38.866;2023-03-15T06:56:54;98970.0;;;7.4;64.3
28456;BME280;15682;56.742;38.866;2023-03-15T06:58:54;98970.0;;;7.3;64.3
28456;BME280;15682;56.742;38.866;2023-03-15T07:00:54;98970.0;;;7.4;63.5
28456;BME280;15682;56.742;38.866;2023-03-15T07:02:54;98970.0;;;7.0;65.7
28456;BME280;15682;56.742;38.866;2023-03-15T07:04:55;98970.0;;;7.2;65.1
28456;BME280;15682;56.742;38.866;2023-03-15T07:06:55;98970.0;;;7.3;63.3
28456;BME280;15682;56.742;38.866;2023-03-15T07:08:55;98970.0;;;7.7;62.6
28456;BME280;15682;56.742;38.866;2023-03-15T07:10:55;98970.0;;;7.8;63.9
28456;BME280;15682;56.742;38.866;2023-03-15T07:12:55;98970.0;;;7.8;62.0
28456;BME280;15682;56.742;38.866;2023-03-15T07:14:55;98970.0;;;7.8;62.0
28456;BME280;15682;56.742;38.866;2023-03-15T07:16:55;98970.0;;;7.8;61.5
28456;BME280;15682;56.742;38.866;2023-03-15T07:18:55;98970.0;;;8.0;60.3
28456;BME280;15682;56.742;38.866;2023-03-15T07:20:56;98970.0;;;8.0;61.1
28456;BME280;15682;56.742;38.866;2023-03-15T07:22:56;98970.0;;;7.9;61.6
28456;BME280;15682;56.742;38.866;2023-03-15T07:24:56;98970.0;;;7.7;60.6
28456;BME280;15682;56.742;38.866;2023-03-15T07:26:56;98970.0;;;7.7;61.7
28456;BME280;15682;56.742;38.866;2023-03-15T07:28:56;98970.0;;;7.7;60.3
28456;BME280;15682;56.742;38.866;2023-03-15T07:30:58;98960.0;;;7.7;60.9
28456;BME280;15682;56.742;38.866;2023-03-15T07:32:56;98960.0;;;7.7;61.9
28456;BME280;15682;56.742;38.866;2023-03-15T07:34:56;98960.0;;;7.7;61.9
28456;BME280;15682;56.742;38.866;2023-03-15T07:36:56;98970.0;;;7.6;61.9
28456;BME280;15682;56.742;38.866;2023-03-15T07:38:57;98970.0;;;7.4;61.8
28456;BME280;15682;56.742;38.866;2023-03-15T07:41:00;98970.0;;;7.4;62.1
28456;BME280;15682;56.742;38.866;2023-03-15T07:42:57;98970.0;;;7.4;61.7
28456;BME280;15682;56.742;38.866;2023-03-15T07:44:57;98970.0;;;7.1;63.8
28456;BME280;15682;56.742;38.866;2023-03-15T07:46:57;98970.0;;;6.8;62.9
28456;BME280;15682;56.742;38.866;2023-03-15T07:48:57;98970.0;;;7.1;62.9
28456;BME280;15682;56.742;38.866;2023-03-15T07:50:57;98990.0;;;7.3;62.9
28456;BME280;15682;56.742;38.866;2023-03-15T07:52:57;98990.0;;;7.3;62.0
28456;BME280;15682;56.742;38.866;2023-03-15T07:54:58;98990.0;;;7.5;62.0
28456;BME280;15682;56.742;38.866;2023-03-15T07:56:58;98990.0;;;7.5;61.4
28456;BME280;15682;56.742;38.866;2023-03-15T07:58:58;98990.0;;;7.3;61.4
28456;BME280;15682;56.742;38.866;2023-03-15T08:00:58;98990.0;;;7.5;61.7
28456;BME280;15682;56.742;38.866;2023-03-15T08:02:58;98990.0;;;7.6;61.7
28456;BME280;15682;56.742;38.866;2023-03-15T08:04:58;98990.0;;;7.6;61.7
28456;BME280;15682;56.742;38.866;2023-03-15T08:06:58;98990.0;;;7.4;61.7
28456;BME280;15682;56.742;38.866;2023-03-15T08:08:58;98990.0;;;7.4;61.7
28456;BME280;15682;56.742;38.866;2023-03-15T08:10:59;98990.0;;;7.9;61.7
28456;BME280;15682;56.742;38.866;2023-03-15T08:12:58;98990.0;;;7.6;61.0
28456;BME280;15682;56.742;38.866;2023-03-15T08:14:59;98990.0;;;7.8;62.2
28456;BME280;15682;56.742;38.866;2023-03-15T08:16:59;98990.0;;;7.9;60.8
28456;BME280;15682;56.742;38.866;2023-03-15T08:18:59;98990.0;;;7.7;60.8
28456;BME280;15682;56.742;38.866;2023-03-15T08:20:59;99000.0;;;7.6;60.8
28456;BME280;15682;56.742;38.866;2023-03-15T08:22:59;99000.0;;;7.8;61.4
28456;BME280;15682;56.742;38.866;2023-03-15T08:25:00;99000.0;;;7.9;60.3
28456;BME280;15682;56.742;38.866;2023-03-15T08:26:59;99000.0;;;8.1;60.3
28456;BME280;15682;56.742;38.866;2023-03-15T08:28:59;99000.0;;;8.1;59.6
28456;BME280;15682;56.742;38.866;2023-03-15T08:31:00;99000.0;;;8.0;59.6
28456;BME280;15682;56.742;38.866;2023-03-15T08:33:00;99000.0;;;7.9;60.3
28456;BME280;15682;56.742;38.866;2023-03-15T08:35:00;99000.0;;;7.9;59.4
28456;BME280;15682;56.742;38.866;2023-03-15T08:37:00;99010.0;;;7.8;60.3
28456;BME280;15682;56.742;38.866;2023-03-15T08:39:00;99010.0;;;8.0;59.6
28456;BME280;15682;56.742;38.866;2023-03-15T08:41:00;99010.0;;;8.1;59.6
28456;BME280;15682;56.742;38.866;2023-03-15T08:43:00;99020.0;;;8.1;59.6
28456;BME280;15682;56.742;38.866;2023-03-15T08:45:00;99020.0;;;8.2;58.6
28456;BME280;15682;56.742;38.866;2023-03-15T08:47:00;99020.0;;;8.1;58.9
28456;BME280;15682;56.742;38.866;2023-03-15T08:49:01;99020.0;;;8.3;58.3
28456;BME280;15682;56.742;38.866;2023-03-15T08:51:01;99030.0;;;7.9;59.5
28456;BME280;15682;56.742;38.866;2023-03-15T08:53:01;99030.0;;;7.9;59.6
28456;BME280;15682;56.742;38.866;2023-03-15T08:55:02;99030.0;;;8.0;58.7
28456;BME280;15682;56.742;38.866;2023-03-15T08:57:01;99030.0;;;7.9;58.7
28456;BME280;15682;56.742;38.866;2023-03-15T08:59:01;99030.0;;;7.8;58.4
28456;BME280;15682;56.742;38.866;2023-03-15T09:01:01;99030.0;;;7.9;59.2
28456;BME280;15682;56.742;38.866;2023-03-15T09:03:01;99030.0;;;8.0;58.5
28456;BME280;15682;56.742;38.866;2023-03-15T09:05:02;99030.0;;;8.0;59.3
28456;BME280;15682;56.742;38.866;2023-03-15T09:07:02;99020.0;;;8.0;58.8
28456;BME280;15682;56.742;38.866;2023-03-15T09:09:02;99020.0;;;8.0;58.5
28456;BME280;15682;56.742;38.866;2023-03-15T09:11:02;99020.0;;;8.1;58.5
28456;BME280;15682;56.742;38.866;2023-03-15T09:13:02;99020.0;;;7.9;58.8
28456;BME280;15682;56.742;38.866;2023-03-15T09:15:02;99020.0;;;7.9;59.6
28456;BME280;15682;56.742;38.866;2023-03-15T09:17:02;99020.0;;;7.7;60.4
28456;BME280;15682;56.742;38.866;2023-03-15T09:19:02;99020.0;;;7.9;59.1
28456;BME280;15682;56.742;38.866;2023-03-15T09:21:04;99030.0;;;7.9;59.1
28456;BME280;15682;56.742;38.866;2023-03-15T09:23:02;99030.0;;;7.9;59.3
28456;BME280;15682;56.742;38.866;2023-03-15T09:25:03;99030.0;;;8.0;58.0
28456;BME280;15682;56.742;38.866;2023-03-15T09:27:03;99030.0;;;8.0;59.1
28456;BME280;15682;56.742;38.866;2023-03-15T09:29:03;99030.0;;;8.2;57.5
28456;BME280;15682;56.742;38.866;2023-03-15T09:31:04;99030.0;;;8.3;57.9
28456;BME280;15682;56.742;38.866;2023-03-15T09:33:03;99030.0;;;8.1;57.6
28456;BME280;15682;56.742;38.866;2023-03-15T09:35:04;99030.0;;;8.2;57.6
28456;BME280;15682;56.742;38.866;2023-03-15T09:37:03;99030.0;;;8.2;57.7
28456;BME280;15682;56.742;38.866;2023-03-15T09:39:03;99030.0;;;8.4;57.5
28456;BME280;15682;56.742;38.866;2023-03-15T09:41:03;99030.0;;;8.5;57.1
28456;BME280;15682;56.742;38.866;2023-03-15T09:43:16;99030.0;;;8.6;57.0
28456;BME280;15682;56.742;38.866;2023-03-15T09:45:08;99030.0;;;8.4;57.9
28456;BME280;15682;56.742;38.866;2023-03-15T09:47:11;99030.0;;;8.4;58.9
28456;BME280;15682;56.742;38.866;2023-03-15T09:49:08;99030.0;;;8.2;59.9
28456;BME280;15682;56.742;38.866;2023-03-15T09:51:07;99030.0;;;8.0;59.9
28456;BME280;15682;56.742;38.866;2023-03-15T09:53:09;99030.0;;;7.9;60.5
28456;BME280;15682;56.742;38.866;2023-03-15T09:55:11;99030.0;;;7.9;61.2
28456;BME280;15682;56.742;38.866;2023-03-15T09:57:09;99040.0;;;8.0;61.2
28456;BME280;15682;56.742;38.866;2023-03-15T09:59:05;99040.0;;;8.1;60.4
28456;BME280;15682;56.742;38.866;2023-03-15T10:01:05;99040.0;;;8.3;60.4
28456;BME280;15682;56.742;38.866;2023-03-15T10:03:05;99040.0;;;8.3;60.1
28456;BME280;15682;56.742;38.866;2023-03-15T10:05:09;99040.0;;;8.3;59.5
28456;BME280;15682;56.742;38.866;2023-03-15T10:07:11;99040.0;;;8.5;58.9
28456;BME280;15682;56.742;38.866;2023-03-15T10:09:12;99040.0;;;8.6;59.7
28456;BME280;15682;56.742;38.866;2023-03-15T10:11:10;99050.0;;;8.6;58.9
28456;BME280;15682;56.742;38.866;2023-03-15T10:13:17;99050.0;;;8.5;59.4
28456;BME280;15682;56.742;38.866;2023-03-15T10:15:21;99050.0;;;8.8;59.4
28456;BME280;15682;56.742;38.866;2023-03-15T10:17:11;99050.0;;;9.0;58.8
28456;BME280;15682;56.742;38.866;2023-03-15T10:19:13;99050.0;;;9.0;58.2
28456;BME280;15682;56.742;38.866;2023-03-15T10:21:11;99050.0;;;8.6;58.2
28456;BME280;15682;56.742;38.866;2023-03-15T10:23:11;99050.0;;;8.7;59.3
28456;BME280;15682;56.742;38.866;2023-03-15T10:25:13;99050.0;;;8.6;59.3
28456;BME280;15682;56.742;38.866;2023-03-15T10:27:14;99050.0;;;8.7;60.1
28456;BME280;15682;56.742;38.866;2023-03-15T10:29:12;99050.0;;;8.7;60.1
28456;BME280;15682;56.742;38.866;2023-03-15T10:31:12;99050.0;;;8.7;60.2
28456;BME280;15682;56.742;38.866;2023-03-15T10:33:19;99060.0;;;8.7;60.3
28456;BME280;15682;56.742;38.866;2023-03-15T10:35:12;99060.0;;;8.6;60.3
28456;BME280;15682;56.742;38.866;2023-03-15T10:37:08;99060.0;;;8.2;61.5
28456;BME280;15682;56.742;38.866;2023-03-15T10:39:08;99060.0;;;8.2;62.3
28456;BME280;15682;56.742;38.866;2023-03-15T10:41:06;99060.0;;;8.2;62.3
28456;BME280;15682;56.742;38.866;2023-03-15T10:43:12;99060.0;;;8.2;62.9
28456;BME280;15682;56.742;38.866;2023-03-15T10:45:20;99060.0;;;8.2;63.4
28456;BME280;15682;56.742;38.866;2023-03-15T10:47:12;99060.0;;;8.2;63.4
28456;BME280;15682;56.742;38.866;2023-03-15T10:49:10;99060.0;;;8.2;64.2
28456;BME280;15682;56.742;38.866;2023-03-15T10:51:15;99060.0;;;8.2;64.2
28456;BME280;15682;56.742;38.866;2023-03-15T10:53:10;99060.0;;;8.2;64.7
28456;BME280;15682;56.742;38.866;2023-03-15T10:55:11;99060.0;;;8.0;65.7
28456;BME280;15682;56.742;38.866;2023-03-15T10:57:13;99060.0;;;8.0;65.7
28456;BME280;15682;56.742;38.866;2023-03-15T10:59:14;99070.0;;;8.0;65.7
28456;BME280;15682;56.742;38.866;2023-03-15T11:01:12;99070.0;;;8.1;65.7